sensor_id;sensor_type;location;lat;lon;timestamp;P1;durP1;ratioP1;P2;durP2;ratioP2
64917;SDS011;52176;44.858;38.372;2022-08-03T00:48:38;13.32;;;9.48;;
64917;SDS011;52176;44.858;38.372;2022-08-03T00:51:04;13.48;;;10.45;;
64917;SDS011;52176;44.858;38.372;2022-08-03T00:53:34;11.35;;;9.93;;
64917;SDS011;52176;44.858;38.372;2022-08-03T00:56:01;14.38;;;10.20;;
64917;SDS011;52176;44.858;38.372;2022-08-03T00:58:27;11.35;;;9.23;;
64917;SDS011;52176;44.858;38.372;2022-08-03T01:00:53;14.93;;;10.15;;
64917;SDS011;52176;44.858;38.372;2022-08-03T01:03:19;12.30;;;9.77;;
64917;SDS011;52176;44.858;38.372;2022-08-03T01:05:57;13.93;;;9.80;;
64917;SDS011;52176;44.858;38.372;2022-08-03T01:11:16;14.50;;;9.27;;
64917;SDS011;52176;44.858;38.372;2022-08-03T01:14:40;15.60;;;9.68;;
64917;SDS011;52176;44.858;38.372;2022-08-03T01:25:20;12.65;;;9.68;;
64917;SDS011;52176;44.858;38.372;2022-08-03T01:28:21;12.82;;;9.13;;
64917;SDS011;52176;44.858;38.372;2022-08-03T01:30:51;15.25;;;9.77;;
64917;SDS011;52176;44.858;38.372;2022-08-03T01:33:21;9.93;;;8.93;;
64917;SDS011;52176;44.858;38.372;2022-08-03T01:36:04;11.05;;;9.27;;
64917;SDS011;52176;44.858;38.372;2022-08-03T01:38:40;14.23;;;9.88;;
64917;SDS011;52176;44.858;38.372;2022-08-03T01:41:19;14.02;;;9.82;;
64917;SDS011;52176;44.858;38.372;2022-08-03T01:43:47;17.25;;;10.13;;
64917;SDS011;52176;44.858;38.372;2022-08-03T01:48:43;13.10;;;10.50;;
64917;SDS011;52176;44.858;38.372;2022-08-03T01:51:12;13.30;;;10.98;;
64917;SDS011;52176;44.858;38.372;2022-08-03T01:53:41;13.85;;;10.85;;
64917;SDS011;52176;44.858;38.372;2022-08-03T01:56:07;15.35;;;11.00;;
64917;SDS011;52176;44.858;38.372;2022-08-03T01:58:34;14.35;;;10.98;;
64917;SDS011;52176;44.858;38.372;2022-08-03T02:01:02;17.17;;;11.05;;
64917;SDS011;52176;44.858;38.372;2022-08-03T02:03:31;14.50;;;10.63;;
64917;SDS011;52176;44.858;38.372;2022-08-03T02:06:01;13.73;;;10.63;;
64917;SDS011;52176;44.858;38.372;2022-08-03T02:08:27;14.45;;;10.63;;
64917;SDS011;52176;44.858;38.372;2022-08-03T02:10:56;24.50;;;11.50;;
64917;SDS011;52176;44.858;38.372;2022-08-03T02:13:24;13.23;;;10.98;;
64917;SDS011;52176;44.858;38.372;2022-08-03T02:15:52;15.45;;;12.38;;
64917;SDS011;52176;44.858;38.372;2022-08-03T02:18:19;14.88;;;12.50;;
64917;SDS011;52176;44.858;38.372;2022-08-03T02:20:45;20.70;;;12.05;;
64917;SDS011;52176;44.858;38.372;2022-08-03T02:23:15;19.88;;;13.07;;
64917;SDS011;52176;44.858;38.372;2022-08-03T02:26:01;17.58;;;11.68;;
64917;SDS011;52176;44.858;38.372;2022-08-03T02:28:36;16.98;;;11.90;;
64917;SDS011;52176;44.858;38.372;2022-08-03T02:31:06;18.35;;;12.65;;
64917;SDS011;52176;44.858;38.372;2022-08-03T02:33:48;15.82;;;12.57;;
64917;SDS011;52176;44.858;38.372;2022-08-03T02:36:21;15.65;;;12.25;;
64917;SDS011;52176;44.858;38.372;2022-08-03T02:38:52;23.60;;;12.57;;
64917;SDS011;52176;44.858;38.372;2022-08-03T02:41:27;23.77;;;12.07;;
64917;SDS011;52176;44.858;38.372;2022-08-03T02:43:56;23.13;;;12.75;;
64917;SDS011;52176;44.858;38.372;2022-08-03T02:46:27;19.45;;;12.60;;
64917;SDS011;52176;44.858;38.372;2022-08-03T02:48:58;24.42;;;12.55;;
64917;SDS011;52176;44.858;38.372;2022-08-03T02:51:27;17.90;;;11.85;;
64917;SDS011;52176;44.858;38.372;2022-08-03T02:53:55;19.88;;;12.15;;
64917;SDS011;52176;44.858;38.372;2022-08-03T02:56:23;21.95;;;11.95;;
64917;SDS011;52176;44.858;38.372;2022-08-03T02:58:51;27.73;;;12.70;;
64917;SDS011;52176;44.858;38.372;2022-08-03T03:01:19;21.65;;;12.55;;
64917;SDS011;52176;44.858;38.372;2022-08-03T03:03:47;24.35;;;12.18;;
64917;SDS011;52176;44.858;38.372;2022-08-03T03:06:16;24.50;;;12.00;;
64917;SDS011;52176;44.858;38.372;2022-08-03T03:08:44;19.90;;;12.77;;
64917;SDS011;52176;44.858;38.372;2022-08-03T03:11:12;21.45;;;12.55;;
64917;SDS011;52176;44.858;38.372;2022-08-03T03:13:40;26.42;;;12.38;;
64917;SDS011;52176;44.858;38.372;2022-08-03T03:16:08;21.30;;;11.23;;
64917;SDS011;52176;44.858;38.372;2022-08-03T03:18:37;23.88;;;12.40;;
64917;SDS011;52176;44.858;38.372;2022-08-03T03:21:04;23.45;;;12.05;;
64917;SDS011;52176;44.858;38.372;2022-08-03T03:23:35;22.70;;;12.15;;
64917;SDS011;52176;44.858;38.372;2022-08-03T03:26:04;20.65;;;12.25;;
64917;SDS011;52176;44.858;38.372;2022-08-03T03:28:31;29.67;;;16.67;;
64917;SDS011;52176;44.858;38.372;2022-08-03T03:30:58;28.55;;;15.73;;
64917;SDS011;52176;44.858;38.372;2022-08-03T03:33:25;51.17;;;27.33;;
64917;SDS011;52176;44.858;38.372;2022-08-03T03:35:51;57.60;;;29.40;;
64917;SDS011;52176;44.858;38.372;2022-08-03T03:38:18;53.63;;;24.88;;
64917;SDS011;52176;44.858;38.372;2022-08-03T03:40:44;41.70;;;22.92;;
64917;SDS011;52176;44.858;38.372;2022-08-03T03:43:11;53.00;;;27.10;;
64917;SDS011;52176;44.858;38.372;2022-08-03T06:10:29;20.27;;;6.68;;
64917;SDS011;52176;44.858;38.372;2022-08-03T06:12:54;13.55;;;6.38;;
64917;SDS011;52176;44.858;38.372;2022-08-03T06:15:20;13.38;;;7.18;;
64917;SDS011;52176;44.858;38.372;2022-08-03T06:17:47;13.82;;;7.35;;
64917;SDS011;52176;44.858;38.372;2022-08-03T08:02:12;35.38;;;8.70;;
64917;SDS011;52176;44.858;38.372;2022-08-03T08:04:39;24.70;;;8.00;;
64917;SDS011;52176;44.858;38.372;2022-08-03T08:09:31;18.58;;;7.68;;
64917;SDS011;52176;44.858;38.372;2022-08-03T08:11:57;21.77;;;8.15;;
64917;SDS011;52176;44.858;38.372;2022-08-03T08:14:23;20.48;;;8.13;;
64917;SDS011;52176;44.858;38.372;2022-08-03T08:16:49;13.15;;;6.97;;
64917;SDS011;52176;44.858;38.372;2022-08-03T08:27:03;13.77;;;7.90;;
64917;SDS011;52176;44.858;38.372;2022-08-03T08:34:20;23.92;;;12.10;;
64917;SDS011;52176;44.858;38.372;2022-08-03T08:36:47;14.05;;;9.50;;
64917;SDS011;52176;44.858;38.372;2022-08-03T08:39:13;14.55;;;7.65;;
64917;SDS011;52176;44.858;38.372;2022-08-03T08:41:38;8.45;;;5.68;;
64917;SDS011;52176;44.858;38.372;2022-08-03T08:44:07;9.48;;;5.68;;
64917;SDS011;52176;44.858;38.372;2022-08-03T08:46:35;9.30;;;5.30;;
64917;SDS011;52176;44.858;38.372;2022-08-03T08:51:30;10.30;;;5.65;;
64917;SDS011;52176;44.858;38.372;2022-08-03T08:56:27;8.65;;;5.80;;
64917;SDS011;52176;44.858;38.372;2022-08-03T09:13:33;11.90;;;5.57;;
64917;SDS011;52176;44.858;38.372;2022-08-03T09:16:18;6.95;;;4.80;;
64917;SDS011;52176;44.858;38.372;2022-08-03T09:18:52;6.20;;;4.22;;
64917;SDS011;52176;44.858;38.372;2022-08-03T09:23:50;7.60;;;4.63;;
64917;SDS011;52176;44.858;38.372;2022-08-03T09:26:21;6.80;;;4.63;;
64917;SDS011;52176;44.858;38.372;2022-08-03T09:29:01;6.03;;;4.80;;
64917;SDS011;52176;44.858;38.372;2022-08-03T14:57:25;8.45;;;4.35;;
64917;SDS011;52176;44.858;38.372;2022-08-03T18:03:56;8.88;;;5.20;;
64917;SDS011;52176;44.858;38.372;2022-08-03T18:06:30;8.35;;;5.38;;
64917;SDS011;52176;44.858;38.372;2022-08-03T18:09:00;8.63;;;5.82;;
64917;SDS011;52176;44.858;38.372;2022-08-03T18:11:27;7.78;;;5.32;;
64917;SDS011;52176;44.858;38.372;2022-08-03T18:13:58;7.93;;;5.30;;
64917;SDS011;52176;44.858;38.372;2022-08-03T18:16:34;10.20;;;5.60;;
64917;SDS011;52176;44.858;38.372;2022-08-03T18:19:03;8.13;;;5.20;;
64917;SDS011;52176;44.858;38.372;2022-08-03T18:21:30;6.82;;;5.53;;
64917;SDS011;52176;44.858;38.372;2022-08-03T18:23:57;8.23;;;4.90;;
64917;SDS011;52176;44.858;38.372;2022-08-03T18:26:23;7.78;;;5.55;;
64917;SDS011;52176;44.858;38.372;2022-08-03T18:28:50;6.75;;;5.38;;
64917;SDS011;52176;44.858;38.372;2022-08-03T18:31:17;8.18;;;5.32;;
64917;SDS011;52176;44.858;38.372;2022-08-03T18:33:45;7.43;;;5.38;;
64917;SDS011;52176;44.858;38.372;2022-08-03T18:36:12;6.40;;;5.28;;
64917;SDS011;52176;44.858;38.372;2022-08-03T18:38:39;9.30;;;5.38;;
64917;SDS011;52176;44.858;38.372;2022-08-03T18:41:06;8.10;;;5.68;;
64917;SDS011;52176;44.858;38.372;2022-08-03T18:43:33;7.45;;;5.75;;
64917;SDS011;52176;44.858;38.372;2022-08-03T18:46:03;13.30;;;6.45;;
64917;SDS011;52176;44.858;38.372;2022-08-03T18:48:34;9.02;;;5.90;;
64917;SDS011;52176;44.858;38.372;2022-08-03T18:51:16;11.60;;;6.63;;
64917;SDS011;52176;44.858;38.372;2022-08-03T18:59:12;9.02;;;6.68;;
64917;SDS011;52176;44.858;38.372;2022-08-03T19:01:47;9.23;;;6.45;;
64917;SDS011;52176;44.858;38.372;2022-08-03T19:04:21;9.65;;;6.75;;
64917;SDS011;52176;44.858;38.372;2022-08-03T19:06:57;10.07;;;6.60;;
64917;SDS011;52176;44.858;38.372;2022-08-03T19:12:00;9.80;;;6.28;;
64917;SDS011;52176;44.858;38.372;2022-08-03T19:14:34;9.57;;;6.35;;
64917;SDS011;52176;44.858;38.372;2022-08-03T19:17:06;12.75;;;6.35;;
64917;SDS011;52176;44.858;38.372;2022-08-03T19:19:33;10.57;;;6.45;;
64917;SDS011;52176;44.858;38.372;2022-08-03T19:22:01;9.65;;;6.70;;
64917;SDS011;52176;44.858;38.372;2022-08-03T19:24:29;11.85;;;7.00;;
64917;SDS011;52176;44.858;38.372;2022-08-03T19:26:55;11.23;;;7.00;;
64917;SDS011;52176;44.858;38.372;2022-08-03T19:29:23;10.52;;;6.85;;
64917;SDS011;52176;44.858;38.372;2022-08-03T19:31:51;8.68;;;6.97;;
64917;SDS011;52176;44.858;38.372;2022-08-03T19:34:21;9.05;;;7.13;;
64917;SDS011;52176;44.858;38.372;2022-08-03T19:36:48;11.32;;;6.60;;
64917;SDS011;52176;44.858;38.372;2022-08-03T19:39:15;10.63;;;6.63;;
64917;SDS011;52176;44.858;38.372;2022-08-03T19:41:42;8.65;;;6.78;;
64917;SDS011;52176;44.858;38.372;2022-08-03T19:44:14;7.65;;;6.57;;
64917;SDS011;52176;44.858;38.372;2022-08-03T19:46:57;11.52;;;6.93;;
64917;SDS011;52176;44.858;38.372;2022-08-03T19:49:31;10.32;;;7.03;;
64917;SDS011;52176;44.858;38.372;2022-08-03T19:52:01;9.75;;;6.35;;
64917;SDS011;52176;44.858;38.372;2022-08-03T19:54:41;9.63;;;7.18;;
64917;SDS011;52176;44.858;38.372;2022-08-03T19:57:10;8.57;;;6.63;;
64917;SDS011;52176;44.858;38.372;2022-08-03T19:59:41;11.23;;;6.60;;
64917;SDS011;52176;44.858;38.372;2022-08-03T20:02:08;10.95;;;6.65;;
64917;SDS011;52176;44.858;38.372;2022-08-03T20:04:34;9.57;;;6.72;;
64917;SDS011;52176;44.858;38.372;2022-08-03T20:07:01;7.43;;;6.10;;
64917;SDS011;52176;44.858;38.372;2022-08-03T20:09:28;8.38;;;6.78;;
64917;SDS011;52176;44.858;38.372;2022-08-03T20:11:54;13.13;;;7.45;;
64917;SDS011;52176;44.858;38.372;2022-08-03T20:14:20;8.65;;;7.15;;
64917;SDS011;52176;44.858;38.372;2022-08-03T20:16:47;8.95;;;6.80;;
64917;SDS011;52176;44.858;38.372;2022-08-03T20:19:13;12.93;;;6.80;;
64917;SDS011;52176;44.858;38.372;2022-08-03T20:21:41;10.32;;;7.82;;
64917;SDS011;52176;44.858;38.372;2022-08-03T20:24:15;11.70;;;7.63;;
64917;SDS011;52176;44.858;38.372;2022-08-03T20:26:47;16.52;;;9.48;;
64917;SDS011;52176;44.858;38.372;2022-08-03T20:29:19;15.18;;;9.98;;
64917;SDS011;52176;44.858;38.372;2022-08-03T20:32:11;16.45;;;10.93;;
64917;SDS011;52176;44.858;38.372;2022-08-03T20:34:38;18.95;;;10.45;;
64917;SDS011;52176;44.858;38.372;2022-08-03T20:37:05;14.45;;;9.55;;
64917;SDS011;52176;44.858;38.372;2022-08-03T20:39:31;13.13;;;9.07;;
64917;SDS011;52176;44.858;38.372;2022-08-03T20:41:58;12.40;;;8.60;;
64917;SDS011;52176;44.858;38.372;2022-08-03T20:44:25;14.25;;;8.77;;
64917;SDS011;52176;44.858;38.372;2022-08-03T20:46:51;9.40;;;8.18;;
64917;SDS011;52176;44.858;38.372;2022-08-03T20:49:17;8.65;;;6.97;;
64917;SDS011;52176;44.858;38.372;2022-08-03T20:51:48;8.57;;;6.90;;
64917;SDS011;52176;44.858;38.372;2022-08-03T20:54:15;7.72;;;6.93;;
64917;SDS011;52176;44.858;38.372;2022-08-03T20:56:42;8.25;;;7.20;;
64917;SDS011;52176;44.858;38.372;2022-08-03T20:59:08;9.20;;;6.80;;
64917;SDS011;52176;44.858;38.372;2022-08-03T21:01:35;15.20;;;7.20;;
64917;SDS011;52176;44.858;38.372;2022-08-03T21:04:05;14.27;;;7.40;;
64917;SDS011;52176;44.858;38.372;2022-08-03T21:06:34;7.95;;;6.97;;
64917;SDS011;52176;44.858;38.372;2022-08-03T21:09:03;9.75;;;6.90;;
64917;SDS011;52176;44.858;38.372;2022-08-03T21:11:32;8.90;;;6.85;;
64917;SDS011;52176;44.858;38.372;2022-08-03T21:14:10;11.00;;;6.93;;
64917;SDS011;52176;44.858;38.372;2022-08-03T21:16:42;9.32;;;7.10;;
64917;SDS011;52176;44.858;38.372;2022-08-03T21:19:10;9.57;;;7.03;;
64917;SDS011;52176;44.858;38.372;2022-08-03T21:21:37;10.48;;;7.05;;
64917;SDS011;52176;44.858;38.372;2022-08-03T21:24:03;10.57;;;6.68;;
64917;SDS011;52176;44.858;38.372;2022-08-03T21:26:32;9.35;;;6.75;;
64917;SDS011;52176;44.858;38.372;2022-08-03T21:28:58;11.38;;;7.20;;
64917;SDS011;52176;44.858;38.372;2022-08-03T21:31:26;8.00;;;7.20;;
64917;SDS011;52176;44.858;38.372;2022-08-03T21:33:53;9.75;;;7.03;;
64917;SDS011;52176;44.858;38.372;2022-08-03T21:36:28;10.98;;;7.43;;
64917;SDS011;52176;44.858;38.372;2022-08-03T21:38:56;10.27;;;6.95;;
64917;SDS011;52176;44.858;38.372;2022-08-03T21:41:22;11.52;;;6.82;;
64917;SDS011;52176;44.858;38.372;2022-08-03T21:43:49;9.45;;;7.10;;
64917;SDS011;52176;44.858;38.372;2022-08-03T21:46:15;9.98;;;7.43;;
64917;SDS011;52176;44.858;38.372;2022-08-03T21:48:43;8.25;;;6.95;;
64917;SDS011;52176;44.858;38.372;2022-08-03T21:51:12;10.52;;;7.25;;
64917;SDS011;52176;44.858;38.372;2022-08-03T21:53:45;8.52;;;7.43;;
64917;SDS011;52176;44.858;38.372;2022-08-03T21:56:17;10.48;;;6.80;;
64917;SDS011;52176;44.858;38.372;2022-08-03T21:58:48;8.05;;;7.00;;
64917;SDS011;52176;44.858;38.372;2022-08-03T22:01:25;7.88;;;7.07;;
64917;SDS011;52176;44.858;38.372;2022-08-03T22:03:54;9.85;;;7.72;;
64917;SDS011;52176;44.858;38.372;2022-08-03T22:06:21;7.65;;;6.85;;
64917;SDS011;52176;44.858;38.372;2022-08-03T22:08:49;8.30;;;6.65;;
64917;SDS011;52176;44.858;38.372;2022-08-03T22:11:17;10.30;;;7.00;;
64917;SDS011;52176;44.858;38.372;2022-08-03T22:13:44;11.93;;;7.68;;
64917;SDS011;52176;44.858;38.372;2022-08-03T22:16:10;11.13;;;7.35;;
64917;SDS011;52176;44.858;38.372;2022-08-03T22:18:40;13.13;;;7.47;;
64917;SDS011;52176;44.858;38.372;2022-08-03T22:21:08;9.65;;;7.03;;
64917;SDS011;52176;44.858;38.372;2022-08-03T22:23:39;9.85;;;6.65;;
64917;SDS011;52176;44.858;38.372;2022-08-03T22:26:12;9.63;;;7.32;;
64917;SDS011;52176;44.858;38.372;2022-08-03T22:28:40;10.88;;;7.38;;
64917;SDS011;52176;44.858;38.372;2022-08-03T22:31:06;10.63;;;6.82;;
64917;SDS011;52176;44.858;38.372;2022-08-03T22:33:33;10.95;;;7.55;;
64917;SDS011;52176;44.858;38.372;2022-08-03T22:36:00;9.15;;;6.75;;
64917;SDS011;52176;44.858;38.372;2022-08-03T22:38:29;10.05;;;7.32;;
64917;SDS011;52176;44.858;38.372;2022-08-03T22:40:57;10.68;;;7.22;;
64917;SDS011;52176;44.858;38.372;2022-08-03T22:43:24;9.20;;;6.80;;
64917;SDS011;52176;44.858;38.372;2022-08-03T22:45:52;9.98;;;7.05;;
64917;SDS011;52176;44.858;38.372;2022-08-03T22:48:19;9.32;;;7.10;;
64917;SDS011;52176;44.858;38.372;2022-08-03T22:50:46;12.07;;;7.60;;
64917;SDS011;52176;44.858;38.372;2022-08-03T22:53:17;9.32;;;6.78;;
64917;SDS011;52176;44.858;38.372;2022-08-03T22:55:48;9.68;;;6.95;;
64917;SDS011;52176;44.858;38.372;2022-08-03T22:58:16;9.25;;;7.60;;
64917;SDS011;52176;44.858;38.372;2022-08-03T23:00:46;9.50;;;7.18;;
64917;SDS011;52176;44.858;38.372;2022-08-03T23:03:20;8.70;;;7.30;;
64917;SDS011;52176;44.858;38.372;2022-08-03T23:05:51;12.13;;;7.38;;
64917;SDS011;52176;44.858;38.372;2022-08-03T23:08:19;10.07;;;7.50;;
64917;SDS011;52176;44.858;38.372;2022-08-03T23:10:49;9.93;;;7.88;;
64917;SDS011;52176;44.858;38.372;2022-08-03T23:13:17;10.00;;;7.65;;
64917;SDS011;52176;44.858;38.372;2022-08-03T23:15:46;8.85;;;7.05;;
64917;SDS011;52176;44.858;38.372;2022-08-03T23:18:23;9.35;;;7.03;;
64917;SDS011;52176;44.858;38.372;2022-08-03T23:20:52;15.32;;;7.25;;
64917;SDS011;52176;44.858;38.372;2022-08-03T23:23:22;8.35;;;6.88;;
64917;SDS011;52176;44.858;38.372;2022-08-03T23:25:48;9.30;;;7.18;;
64917;SDS011;52176;44.858;38.372;2022-08-03T23:28:16;9.60;;;6.78;;
64917;SDS011;52176;44.858;38.372;2022-08-03T23:30:43;11.45;;;7.70;;
64917;SDS011;52176;44.858;38.372;2022-08-03T23:33:12;8.70;;;7.18;;
64917;SDS011;52176;44.858;38.372;2022-08-03T23:35:39;10.82;;;7.53;;
64917;SDS011;52176;44.858;38.372;2022-08-03T23:38:24;11.88;;;7.38;;
64917;SDS011;52176;44.858;38.372;2022-08-03T23:40:55;9.70;;;7.35;;
64917;SDS011;52176;44.858;38.372;2022-08-03T23:43:26;8.70;;;6.63;;
64917;SDS011;52176;44.858;38.372;2022-08-03T23:45:55;8.65;;;6.78;;
64917;SDS011;52176;44.858;38.372;2022-08-03T23:48:24;8.98;;;7.03;;
64917;SDS011;52176;44.858;38.372;2022-08-03T23:50:54;9.20;;;7.13;;
64917;SDS011;52176;44.858;38.372;2022-08-03T23:53:47;11.15;;;6.88;;
